createdAt,value
2023-12-29T00:00:02.602Z,43.72
2023-12-29T00:00:27.522Z,43.67
2023-12-29T00:00:50.421Z,43.80
2023-12-29T00:01:12.156Z,43.66
2023-12-29T00:01:34.153Z,43.56
2023-12-29T00:01:55.960Z,43.77
2023-12-29T00:02:18.608Z,43.66
2023-12-29T00:02:40.305Z,43.33
2023-12-29T00:03:02.938Z,43.46
2023-12-29T00:03:24.594Z,43.54
2023-12-29T00:03:46.361Z,43.35
2023-12-29T00:04:08.041Z,43.67
2023-12-29T00:04:29.854Z,43.45
2023-12-29T00:04:51.596Z,43.83
2023-12-29T00:05:14.226Z,43.75
2023-12-29T00:05:35.898Z,43.63
2023-12-29T00:05:57.621Z,43.47
2023-12-29T00:06:19.253Z,43.36
2023-12-29T00:06:49.840Z,43.30
2023-12-29T00:07:21.915Z,43.31
2023-12-29T00:07:44.867Z,43.37
2023-12-29T00:08:07.296Z,43.37
2023-12-29T00:08:28.969Z,43.41
2023-12-29T00:08:50.564Z,43.40
2023-12-29T00:09:13.536Z,43.13
2023-12-29T00:09:41.571Z,43.26
2023-12-29T00:10:04.892Z,43.20
2023-12-29T00:10:26.557Z,43.30
2023-12-29T00:10:48.158Z,43.44
2023-12-29T00:11:17.559Z,43.46
2023-12-29T00:11:39.486Z,43.55
2023-12-29T00:12:02.057Z,43.76
2023-12-29T00:12:23.805Z,43.63
2023-12-29T00:12:46.966Z,44.07
2023-12-29T00:13:08.726Z,43.84
2023-12-29T00:13:30.367Z,43.93
2023-12-29T00:13:53.048Z,44.03
2023-12-29T00:14:14.741Z,44.36
2023-12-29T00:14:38.297Z,44.74
2023-12-29T00:14:59.938Z,44.62
2023-12-29T00:15:21.668Z,44.76
2023-12-29T00:15:43.801Z,44.69
2023-12-29T00:16:07.439Z,44.44
2023-12-29T00:16:29.279Z,44.53
2023-12-29T00:16:51.012Z,44.75
2023-12-29T00:17:12.789Z,44.61
2023-12-29T00:17:38.190Z,44.52
2023-12-29T00:18:01.357Z,44.54
2023-12-29T00:18:23.488Z,44.69
2023-12-29T00:18:45.512Z,44.67
2023-12-29T00:19:07.414Z,44.59
2023-12-29T00:19:29.205Z,44.74
2023-12-29T00:19:51.865Z,44.69
2023-12-29T00:20:16.910Z,44.42
2023-12-29T00:20:43.415Z,44.24
2023-12-29T00:21:06.906Z,44.47
2023-12-29T00:21:30.628Z,43.90
2023-12-29T00:21:52.350Z,43.95
2023-12-29T00:22:14.050Z,44.76
2023-12-29T00:22:35.752Z,44.84
2023-12-29T00:22:59.611Z,44.72
2023-12-29T00:23:21.231Z,44.84
2023-12-29T00:23:42.863Z,44.84
2023-12-29T00:24:05.678Z,44.63
2023-12-29T00:24:27.550Z,44.52
2023-12-29T00:24:49.285Z,44.46
2023-12-29T00:25:12.377Z,44.26
2023-12-29T00:25:58.568Z,43.96
2023-12-29T00:26:20.609Z,44.08
2023-12-29T00:26:48.603Z,44.14
2023-12-29T00:27:11.327Z,44.16
2023-12-29T00:27:32.972Z,43.87
2023-12-29T00:27:55.958Z,44.14
2023-12-29T00:28:17.607Z,44.03
2023-12-29T00:28:41.533Z,44.08
2023-12-29T00:29:03.276Z,43.75
2023-12-29T00:29:26.003Z,43.92
2023-12-29T00:29:47.662Z,43.91
2023-12-29T00:30:10.194Z,43.82
2023-12-29T00:30:44.003Z,43.46
2023-12-29T00:31:15.666Z,43.70
2023-12-29T00:31:38.375Z,43.53
2023-12-29T00:32:01.270Z,43.94
2023-12-29T00:32:23.132Z,43.84
2023-12-29T00:32:44.855Z,44.01
2023-12-29T00:33:08.763Z,43.87
2023-12-29T00:33:31.300Z,43.92
2023-12-29T00:33:54.371Z,44.12
2023-12-29T00:34:16.270Z,44.16
2023-12-29T00:34:38.498Z,44.06
2023-12-29T00:35:00.342Z,43.73
2023-12-29T00:35:22.462Z,44.13
2023-12-29T00:35:45.378Z,44.04
2023-12-29T00:36:07.292Z,44.23
2023-12-29T00:36:28.937Z,44.40
2023-12-29T00:36:50.615Z,44.39
2023-12-29T00:37:12.380Z,44.52
2023-12-29T00:37:35.022Z,44.45
2023-12-29T00:37:56.693Z,44.43
2023-12-29T00:38:19.602Z,44.92
2023-12-29T00:38:41.207Z,44.97
2023-12-29T00:39:02.947Z,44.52
2023-12-29T00:39:29.603Z,44.49
2023-12-29T00:39:52.426Z,44.65
2023-12-29T00:40:14.261Z,44.51
2023-12-29T00:40:35.916Z,44.40
2023-12-29T00:40:57.495Z,44.28
2023-12-29T00:41:19.159Z,44.21
2023-12-29T00:41:41.465Z,44.50
2023-12-29T00:42:04.217Z,44.10
2023-12-29T00:42:25.890Z,44.26
2023-12-29T00:42:47.525Z,44.46
2023-12-29T00:43:10.653Z,44.96
2023-12-29T00:43:33.054Z,45.02
2023-12-29T00:43:56.204Z,45.11
2023-12-29T00:44:17.834Z,45.06
2023-12-29T00:44:40.217Z,45.38
2023-12-29T00:45:01.830Z,45.38
2023-12-29T00:45:23.476Z,45.28
2023-12-29T00:45:46.159Z,45.26
2023-12-29T00:46:09.520Z,45.45
2023-12-29T00:46:31.225Z,45.69
2023-12-29T00:46:52.898Z,45.76
2023-12-29T00:47:15.427Z,45.27
2023-12-29T00:47:37.542Z,45.46
2023-12-29T00:48:00.915Z,45.16
2023-12-29T00:48:22.987Z,45.26
2023-12-29T00:48:45.013Z,45.42
2023-12-29T00:49:07.263Z,45.53
2023-12-29T00:49:30.049Z,45.47
2023-12-29T00:49:51.825Z,45.10
2023-12-29T00:50:13.504Z,45.34
2023-12-29T00:50:35.231Z,45.07
2023-12-29T00:50:56.858Z,44.81
2023-12-29T00:51:19.416Z,45.58
2023-12-29T00:51:42.276Z,45.33
2023-12-29T00:52:04.614Z,45.45
2023-12-29T00:52:26.286Z,45.28
2023-12-29T00:52:47.902Z,44.94
2023-12-29T00:53:09.578Z,44.88
2023-12-29T00:53:34.172Z,45.23
2023-12-29T00:53:55.833Z,44.76
2023-12-29T00:54:17.726Z,44.90
2023-12-29T00:54:41.477Z,44.67
2023-12-29T00:55:03.702Z,45.07
2023-12-29T00:55:25.540Z,45.25
2023-12-29T00:55:48.265Z,45.21
2023-12-29T00:56:11.751Z,45.43
2023-12-29T00:56:34.582Z,45.04
2023-12-29T00:56:56.197Z,44.86
2023-12-29T00:57:17.857Z,44.85
2023-12-29T00:57:39.510Z,44.79
2023-12-29T00:58:02.522Z,44.53
2023-12-29T00:58:25.704Z,44.27
2023-12-29T00:58:48.821Z,44.33
2023-12-29T00:59:10.793Z,44.06
2023-12-29T00:59:32.455Z,44.10
2023-12-29T00:59:55.062Z,44.04
2023-12-29T01:00:17.149Z,43.92
2023-12-29T01:00:38.902Z,43.62
2023-12-29T01:01:00.776Z,43.58
2023-12-29T01:01:22.598Z,43.64
2023-12-29T01:01:45.723Z,43.49
2023-12-29T01:02:09.694Z,43.51
2023-12-29T01:02:31.324Z,44.42
2023-12-29T01:02:52.956Z,44.71
2023-12-29T01:03:14.621Z,44.85
2023-12-29T01:03:36.337Z,44.59
2023-12-29T01:03:58.446Z,44.66
2023-12-29T01:04:21.247Z,44.20
2023-12-29T01:04:43.740Z,44.36
2023-12-29T01:05:07.145Z,43.85
2023-12-29T01:05:29.268Z,43.93
2023-12-29T01:05:50.998Z,43.92
2023-12-29T01:06:12.776Z,43.96
2023-12-29T01:06:35.397Z,43.94
2023-12-29T01:06:57.092Z,43.59
2023-12-29T01:07:18.825Z,43.64
2023-12-29T01:07:40.519Z,43.26
2023-12-29T01:08:02.406Z,43.37
2023-12-29T01:08:24.284Z,43.50
2023-12-29T01:08:46.964Z,43.53
2023-12-29T01:09:10.116Z,43.13
2023-12-29T01:09:31.840Z,43.00
2023-12-29T01:09:53.506Z,42.97
2023-12-29T01:10:15.463Z,42.85
2023-12-29T01:10:37.160Z,42.91
2023-12-29T01:10:59.825Z,43.28
2023-12-29T01:11:21.476Z,43.07
2023-12-29T01:11:43.105Z,43.07
2023-12-29T01:12:06.092Z,43.21
2023-12-29T01:12:27.688Z,43.08
2023-12-29T01:12:50.347Z,43.23
2023-12-29T01:13:12.613Z,43.47
2023-12-29T01:13:35.742Z,43.79
2023-12-29T01:13:57.415Z,43.75
2023-12-29T01:14:19.065Z,43.75
2023-12-29T01:14:41.701Z,44.07
2023-12-29T01:15:03.810Z,43.55
2023-12-29T01:15:25.607Z,43.21
2023-12-29T01:15:47.666Z,43.46
2023-12-29T01:16:09.412Z,43.25
2023-12-29T01:16:31.095Z,43.16
2023-12-29T01:16:53.722Z,42.94
2023-12-29T01:17:15.537Z,43.14
2023-12-29T01:18:17.248Z,43.06
2023-12-29T01:18:40.164Z,43.00
2023-12-29T01:20:19.179Z,43.24
2023-12-29T01:21:21.266Z,42.95
2023-12-29T01:22:12.396Z,42.97
2023-12-29T01:28:53.791Z,43.45
2023-12-29T01:29:15.400Z,43.25
2023-12-29T01:29:37.879Z,43.27
2023-12-29T01:30:00.958Z,43.16
2023-12-29T01:30:22.785Z,43.29
2023-12-29T01:30:44.527Z,42.93
2023-12-29T01:31:07.281Z,42.89
2023-12-29T01:31:30.533Z,42.92
2023-12-29T01:31:52.213Z,42.81
2023-12-29T01:32:13.936Z,42.66
2023-12-29T01:32:37.232Z,42.90
2023-12-29T01:33:00.021Z,42.91
2023-12-29T01:33:22.666Z,42.66
2023-12-29T01:33:44.567Z,42.64
2023-12-29T01:34:06.408Z,42.87
2023-12-29T01:34:33.630Z,42.87
2023-12-29T01:34:56.534Z,42.82
2023-12-29T01:35:20.270Z,42.89
2023-12-29T01:35:42.100Z,42.84
2023-12-29T01:36:11.175Z,42.59
2023-12-29T01:36:37.924Z,42.91
2023-12-29T01:36:59.595Z,42.75
2023-12-29T01:37:21.225Z,42.70
2023-12-29T01:37:43.424Z,42.75
2023-12-29T01:38:05.370Z,42.85
2023-12-29T01:38:26.977Z,43.08
2023-12-29T01:38:49.599Z,43.28
2023-12-29T01:39:11.285Z,43.86
2023-12-29T01:39:34.356Z,43.69
2023-12-29T01:39:56.131Z,43.60
2023-12-29T01:40:18.674Z,44.08
2023-12-29T01:40:45.682Z,43.79
2023-12-29T01:41:08.497Z,43.74
2023-12-29T01:41:30.496Z,43.74
2023-12-29T01:41:52.137Z,43.43
2023-12-29T01:42:13.761Z,43.47
2023-12-29T01:42:35.719Z,43.82
2023-12-29T01:42:58.528Z,44.00
2023-12-29T01:43:20.259Z,43.86
2023-12-29T01:44:18.170Z,43.61
2023-12-29T01:44:39.930Z,43.72
2023-12-29T01:45:02.648Z,43.54
2023-12-29T01:45:27.036Z,43.79
2023-12-29T01:45:55.711Z,43.56
2023-12-29T01:46:19.940Z,43.67
2023-12-29T01:46:41.798Z,43.57
2023-12-29T01:47:06.294Z,43.60
2023-12-29T01:47:28.436Z,43.17
2023-12-29T01:47:50.657Z,43.74
2023-12-29T01:48:12.537Z,44.01
2023-12-29T01:48:36.410Z,44.07
2023-12-29T01:48:59.531Z,43.77
2023-12-29T01:49:23.596Z,43.54
2023-12-29T01:49:46.791Z,43.84
2023-12-29T01:50:09.821Z,43.87
2023-12-29T01:50:31.857Z,43.89
2023-12-29T01:50:55.933Z,43.92
2023-12-29T01:51:19.244Z,44.10
2023-12-29T01:51:42.871Z,43.72
2023-12-29T01:52:05.697Z,43.87
2023-12-29T01:52:28.381Z,43.70
2023-12-29T01:52:51.646Z,43.80
2023-12-29T01:53:13.476Z,43.58
2023-12-29T01:53:43.040Z,43.86
2023-12-29T01:54:10.738Z,44.08
2023-12-29T01:54:36.701Z,44.09
2023-12-29T01:54:58.409Z,44.07
2023-12-29T01:55:22.220Z,43.88
2023-12-29T01:55:44.531Z,44.02
2023-12-29T01:56:09.127Z,43.93
2023-12-29T01:56:31.312Z,43.64
2023-12-29T01:56:56.281Z,44.05
2023-12-29T01:57:19.018Z,44.00
2023-12-29T01:57:40.713Z,44.38
2023-12-29T01:58:03.913Z,44.22
2023-12-29T01:58:25.774Z,44.13
2023-12-29T01:58:49.917Z,44.16
2023-12-29T01:59:19.171Z,43.97
2023-12-29T01:59:50.074Z,43.99
2023-12-29T02:00:13.094Z,43.98
2023-12-29T02:00:36.579Z,43.86
2023-12-29T02:01:00.315Z,43.81
2023-12-29T02:01:22.940Z,44.11
2023-12-29T02:01:46.519Z,44.07
2023-12-29T02:02:08.581Z,44.79
2023-12-29T02:02:30.364Z,44.87
2023-12-29T02:02:52.309Z,45.02
2023-12-29T02:03:15.026Z,44.70
2023-12-29T02:03:37.535Z,44.79
2023-12-29T02:03:59.488Z,44.79
2023-12-29T02:04:21.819Z,44.75
2023-12-29T02:04:44.473Z,44.40
2023-12-29T02:05:06.966Z,44.70
2023-12-29T02:05:32.912Z,44.29
2023-12-29T02:05:55.995Z,44.10
2023-12-29T02:06:18.951Z,44.38
2023-12-29T02:06:42.031Z,44.23
2023-12-29T02:07:03.891Z,44.20
2023-12-29T02:07:30.516Z,44.19
2023-12-29T02:07:53.203Z,43.73
2023-12-29T02:08:14.878Z,44.15
2023-12-29T02:08:37.605Z,44.10
2023-12-29T02:09:00.117Z,44.00
2023-12-29T02:09:22.039Z,43.71
2023-12-29T02:09:46.678Z,43.93
2023-12-29T02:10:09.210Z,43.84
2023-12-29T02:10:31.383Z,43.63
2023-12-29T02:10:53.241Z,44.52
2023-12-29T02:11:15.178Z,44.99
2023-12-29T02:11:36.907Z,44.88
2023-12-29T02:11:59.514Z,44.72
2023-12-29T02:12:21.515Z,44.85
2023-12-29T02:12:43.349Z,44.29
2023-12-29T02:13:05.302Z,45.00
2023-12-29T02:13:27.003Z,45.38
2023-12-29T02:13:48.695Z,45.55
2023-12-29T02:14:12.049Z,45.02
2023-12-29T02:14:33.767Z,44.75
2023-12-29T02:14:56.772Z,44.66
2023-12-29T02:15:18.502Z,44.79
2023-12-29T02:15:40.451Z,44.95
2023-12-29T02:16:08.528Z,44.56
2023-12-29T02:16:37.965Z,44.78
2023-12-29T02:17:06.809Z,44.63
2023-12-29T02:17:32.598Z,44.59
2023-12-29T02:18:07.160Z,44.44
2023-12-29T02:18:35.273Z,44.14
2023-12-29T02:19:00.235Z,43.96
2023-12-29T02:19:37.747Z,44.07
2023-12-29T02:20:00.470Z,44.05
2023-12-29T02:20:24.637Z,44.32
2023-12-29T02:20:46.562Z,44.11
2023-12-29T02:21:08.367Z,44.23
2023-12-29T02:21:30.028Z,44.01
2023-12-29T02:21:52.329Z,43.98
2023-12-29T02:22:14.697Z,43.86
2023-12-29T02:22:37.404Z,43.78
2023-12-29T02:22:59.777Z,43.67
2023-12-29T02:23:21.468Z,43.78
2023-12-29T02:23:43.266Z,43.43
2023-12-29T02:24:06.185Z,43.39
2023-12-29T02:24:27.945Z,43.46
2023-12-29T02:24:52.106Z,43.51
2023-12-29T02:25:14.427Z,43.48
2023-12-29T02:25:38.626Z,43.66
2023-12-29T02:26:09.620Z,43.36
2023-12-29T02:26:35.922Z,43.40
2023-12-29T02:27:07.254Z,43.29
2023-12-29T02:27:43.299Z,43.42
2023-12-29T02:28:14.014Z,43.47
2023-12-29T02:28:39.052Z,43.31
2023-12-29T02:29:06.321Z,43.11
2023-12-29T02:29:31.052Z,43.15
2023-12-29T02:30:04.060Z,42.91
2023-12-29T02:30:32.312Z,42.92
2023-12-29T02:31:01.308Z,43.37
2023-12-29T02:31:27.387Z,43.34
2023-12-29T02:31:54.731Z,43.32
2023-12-29T02:32:20.529Z,43.09
2023-12-29T02:32:44.338Z,43.07
2023-12-29T02:33:08.753Z,43.12
2023-12-29T02:33:38.851Z,43.91
2023-12-29T02:34:04.211Z,43.61
2023-12-29T02:34:27.351Z,43.80
2023-12-29T02:34:51.693Z,43.90
2023-12-29T02:35:18.504Z,43.62
2023-12-29T02:35:44.359Z,43.30
2023-12-29T02:36:06.991Z,43.33
2023-12-29T02:36:28.646Z,43.47
2023-12-29T02:36:51.742Z,43.79
2023-12-29T02:37:13.923Z,44.49
2023-12-29T02:37:38.535Z,45.00
2023-12-29T02:38:00.821Z,45.07
2023-12-29T02:38:22.837Z,45.29
2023-12-29T02:38:44.827Z,45.26
2023-12-29T02:39:06.590Z,44.93
2023-12-29T02:39:29.847Z,45.09
2023-12-29T02:39:53.110Z,44.70
2023-12-29T02:40:15.710Z,44.99
2023-12-29T02:40:38.830Z,44.82
2023-12-29T02:41:00.874Z,44.51
2023-12-29T02:41:23.508Z,44.54
2023-12-29T02:41:45.144Z,44.11
2023-12-29T02:42:07.084Z,44.44
2023-12-29T02:42:30.227Z,44.37
2023-12-29T02:42:51.971Z,44.49
2023-12-29T02:43:14.674Z,44.57
2023-12-29T02:43:36.449Z,44.31
2023-12-29T02:44:00.437Z,44.13
2023-12-29T02:44:22.196Z,44.00
2023-12-29T02:44:43.816Z,44.25
2023-12-29T02:45:07.288Z,44.43
2023-12-29T02:45:29.179Z,44.47
2023-12-29T02:45:50.974Z,44.59
2023-12-29T02:46:12.798Z,44.67
2023-12-29T02:46:34.482Z,44.60
2023-12-29T02:46:56.317Z,44.45
2023-12-29T02:47:20.316Z,44.72
2023-12-29T02:47:43.030Z,44.67
2023-12-29T02:48:06.140Z,44.79
2023-12-29T02:48:28.491Z,45.17
2023-12-29T02:48:50.664Z,45.13
2023-12-29T02:49:14.211Z,44.82
2023-12-29T02:49:37.140Z,44.73
2023-12-29T02:49:58.910Z,44.30
2023-12-29T02:50:20.770Z,44.45
2023-12-29T02:50:42.384Z,44.51
2023-12-29T02:51:04.697Z,44.46
2023-12-29T02:51:26.561Z,44.43
2023-12-29T02:51:49.098Z,44.16
2023-12-29T02:52:11.901Z,44.43
2023-12-29T02:52:33.542Z,44.33
2023-12-29T02:52:55.147Z,44.31
2023-12-29T02:53:17.347Z,44.01
2023-12-29T02:53:38.959Z,44.00
2023-12-29T02:54:02.012Z,44.10
2023-12-29T02:54:49.450Z,44.74
2023-12-29T02:55:12.703Z,45.72
2023-12-29T02:55:35.372Z,46.17
2023-12-29T02:55:57.166Z,46.01
2023-12-29T02:56:18.824Z,45.87
2023-12-29T02:56:40.426Z,45.89
2023-12-29T02:57:02.093Z,45.83
2023-12-29T02:57:25.599Z,45.95
2023-12-29T02:57:47.324Z,45.38
2023-12-29T02:58:10.051Z,45.51
2023-12-29T02:58:31.746Z,45.02
2023-12-29T02:58:53.421Z,45.22
2023-12-29T02:59:16.006Z,45.13
2023-12-29T02:59:38.425Z,45.10
2023-12-29T03:00:02.009Z,44.75
2023-12-29T03:00:23.764Z,44.56
2023-12-29T03:00:45.487Z,44.63
2023-12-29T03:01:08.346Z,44.89
2023-12-29T03:01:30.278Z,44.75
2023-12-29T03:01:52.143Z,44.66
2023-12-29T03:02:13.939Z,44.55
2023-12-29T03:02:37.036Z,44.41
2023-12-29T03:02:59.222Z,44.36
2023-12-29T03:03:20.857Z,44.29
2023-12-29T03:03:42.683Z,44.14
2023-12-29T03:04:05.318Z,44.27
2023-12-29T03:04:26.999Z,44.10
2023-12-29T03:04:50.664Z,44.20
2023-12-29T03:05:12.414Z,44.27
2023-12-29T03:05:34.131Z,44.35
2023-12-29T03:05:55.823Z,44.35
2023-12-29T03:06:17.467Z,44.16
2023-12-29T03:06:40.072Z,44.24
2023-12-29T03:07:01.753Z,45.24
2023-12-29T03:07:23.403Z,45.17
2023-12-29T03:07:45.026Z,45.16
2023-12-29T03:08:07.230Z,45.50
2023-12-29T03:08:29.783Z,45.21
2023-12-29T03:08:51.500Z,45.48
2023-12-29T03:09:13.126Z,45.48
2023-12-29T03:09:34.860Z,45.23
2023-12-29T03:09:56.573Z,44.93
2023-12-29T03:10:19.949Z,45.07
2023-12-29T03:10:42.566Z,45.23
2023-12-29T03:11:04.477Z,45.08
2023-12-29T03:11:26.118Z,44.85
2023-12-29T03:11:47.702Z,44.43
2023-12-29T03:12:09.384Z,44.36
2023-12-29T03:12:32.506Z,44.75
2023-12-29T03:12:54.182Z,44.59
2023-12-29T03:13:17.079Z,44.28
2023-12-29T03:13:38.733Z,44.33
2023-12-29T03:14:00.365Z,44.54
2023-12-29T03:14:23.069Z,44.96
2023-12-29T03:14:45.295Z,45.13
2023-12-29T03:15:07.396Z,45.27
2023-12-29T03:15:29.380Z,44.93
2023-12-29T03:15:51.062Z,45.23
2023-12-29T03:16:12.871Z,44.79
2023-12-29T03:16:35.556Z,44.92
2023-12-29T03:16:57.223Z,44.71
2023-12-29T03:17:18.926Z,44.38
2023-12-29T03:17:40.717Z,44.85
2023-12-29T03:18:03.755Z,44.79
2023-12-29T03:18:25.752Z,44.89
2023-12-29T03:18:48.787Z,45.09
2023-12-29T03:19:10.594Z,45.07
2023-12-29T03:19:32.402Z,45.31
2023-12-29T03:19:55.420Z,45.29
2023-12-29T03:20:17.112Z,45.06
2023-12-29T03:20:38.703Z,44.90
2023-12-29T03:21:00.268Z,45.19
2023-12-29T03:21:21.939Z,45.08
2023-12-29T03:21:44.615Z,45.13
2023-12-29T03:22:06.333Z,45.78
2023-12-29T03:22:28.012Z,45.75
2023-12-29T03:22:49.622Z,45.57
2023-12-29T03:23:11.249Z,45.29
2023-12-29T03:23:32.853Z,45.38
2023-12-29T03:23:55.424Z,45.72
2023-12-29T03:24:17.228Z,45.78
2023-12-29T03:24:41.881Z,45.51
2023-12-29T03:25:04.160Z,45.76
2023-12-29T03:25:27.173Z,45.80
2023-12-29T03:25:49.751Z,46.28
2023-12-29T03:26:11.992Z,46.58
2023-12-29T03:26:33.723Z,46.84
2023-12-29T03:26:55.385Z,47.20
2023-12-29T03:27:16.995Z,47.04
2023-12-29T03:27:39.797Z,46.81
2023-12-29T03:28:01.874Z,46.82
2023-12-29T03:28:23.785Z,46.33
2023-12-29T03:28:45.437Z,46.47
2023-12-29T03:29:07.089Z,46.76
2023-12-29T03:29:28.771Z,47.13
2023-12-29T03:29:51.428Z,47.30
2023-12-29T03:30:13.571Z,47.42
2023-12-29T03:30:35.301Z,47.06
2023-12-29T03:30:57.144Z,47.00
2023-12-29T03:31:19.052Z,46.54
2023-12-29T03:31:40.939Z,47.10
2023-12-29T03:32:03.578Z,47.20
2023-12-29T03:32:25.252Z,47.16
2023-12-29T03:32:46.960Z,47.53
2023-12-29T03:33:08.651Z,47.53
2023-12-29T03:33:31.003Z,47.87
2023-12-29T03:33:53.766Z,47.56
2023-12-29T03:34:15.585Z,47.27
2023-12-29T03:34:37.509Z,47.10
2023-12-29T03:34:59.407Z,47.29
2023-12-29T03:35:21.869Z,47.38
2023-12-29T03:35:44.500Z,47.24
2023-12-29T03:36:06.322Z,46.97
2023-12-29T03:36:27.997Z,46.81
2023-12-29T03:36:49.742Z,46.55
2023-12-29T03:37:11.594Z,46.79
2023-12-29T03:37:35.114Z,46.82
2023-12-29T03:37:56.842Z,47.46
2023-12-29T03:38:18.499Z,47.61
2023-12-29T03:38:40.130Z,47.69
2023-12-29T03:39:02.028Z,47.93
2023-12-29T03:39:25.211Z,47.71
2023-12-29T03:39:47.610Z,47.44
2023-12-29T03:40:10.162Z,47.53
2023-12-29T03:40:34.817Z,47.46
2023-12-29T03:40:56.414Z,47.45
2023-12-29T03:41:18.021Z,47.61
2023-12-29T03:41:40.614Z,47.71
2023-12-29T03:42:02.321Z,47.86
2023-12-29T03:42:24.025Z,47.41
2023-12-29T03:42:45.651Z,47.48
2023-12-29T03:43:07.542Z,47.73
2023-12-29T03:43:29.650Z,48.26
2023-12-29T03:43:52.394Z,48.59
2023-12-29T03:44:14.251Z,48.60
2023-12-29T03:44:35.930Z,48.44
2023-12-29T03:44:59.088Z,48.67
2023-12-29T03:45:20.713Z,48.60
2023-12-29T03:45:44.077Z,48.28
2023-12-29T03:46:16.504Z,48.17
2023-12-29T03:46:38.203Z,47.88
2023-12-29T03:47:00.317Z,47.68
2023-12-29T03:47:21.932Z,48.18
2023-12-29T03:47:44.308Z,48.04
2023-12-29T03:48:09.037Z,48.12
2023-12-29T03:48:31.302Z,48.66
2023-12-29T03:48:53.138Z,48.48
2023-12-29T03:49:14.948Z,48.12
2023-12-29T03:49:36.789Z,47.88
2023-12-29T03:49:58.994Z,47.59
2023-12-29T03:50:21.586Z,47.37
2023-12-29T03:50:44.925Z,47.43
2023-12-29T03:51:06.686Z,47.10
2023-12-29T03:51:29.171Z,47.46
2023-12-29T03:51:50.838Z,47.26
2023-12-29T03:52:13.575Z,47.34
2023-12-29T03:52:35.286Z,47.55
2023-12-29T03:52:57.238Z,47.77
2023-12-29T03:53:20.160Z,48.03
2023-12-29T03:53:42.142Z,48.58
2023-12-29T03:54:04.785Z,48.74
2023-12-29T03:54:27.436Z,48.42
2023-12-29T03:54:49.105Z,48.08
2023-12-29T03:55:12.022Z,48.07
2023-12-29T03:55:36.234Z,47.95
2023-12-29T03:55:57.959Z,47.82
2023-12-29T03:56:20.768Z,48.45
2023-12-29T03:56:42.441Z,48.52
2023-12-29T03:57:05.245Z,48.53
2023-12-29T03:57:26.915Z,48.35
2023-12-29T03:57:48.572Z,48.10
2023-12-29T03:58:10.393Z,47.83
2023-12-29T03:58:33.317Z,47.63
2023-12-29T03:58:54.986Z,47.25
2023-12-29T03:59:16.582Z,47.03
2023-12-29T03:59:38.560Z,47.20
2023-12-29T04:00:00.214Z,47.33
2023-12-29T04:00:23.921Z,47.53
2023-12-29T04:00:46.373Z,48.22
2023-12-29T04:01:10.795Z,48.56
2023-12-29T04:01:35.092Z,48.27
2023-12-29T04:01:57.094Z,48.17
2023-12-29T04:02:19.013Z,48.02
2023-12-29T04:02:41.637Z,47.85
2023-12-29T04:03:03.564Z,48.46
2023-12-29T04:03:26.553Z,48.15
2023-12-29T04:03:48.288Z,48.60
2023-12-29T04:04:11.082Z,48.91
2023-12-29T04:04:32.802Z,49.07
2023-12-29T04:04:54.691Z,49.77
2023-12-29T04:05:16.491Z,49.99
2023-12-29T04:05:38.223Z,50.05
2023-12-29T04:05:59.883Z,50.03
2023-12-29T04:06:21.522Z,49.95
2023-12-29T04:06:44.342Z,49.96
2023-12-29T04:07:06.019Z,49.63
2023-12-29T04:07:27.645Z,49.50
2023-12-29T04:07:49.273Z,49.33
2023-12-29T04:08:11.202Z,49.20
2023-12-29T04:08:32.876Z,49.20
2023-12-29T04:08:54.582Z,48.98
2023-12-29T04:09:17.313Z,48.80
2023-12-29T04:09:39.065Z,48.72
2023-12-29T04:10:00.757Z,48.36
2023-12-29T04:10:22.638Z,48.15
2023-12-29T04:10:45.669Z,48.03
2023-12-29T04:11:07.524Z,47.88
2023-12-29T04:11:31.323Z,48.14
2023-12-29T04:11:52.922Z,48.09
2023-12-29T04:12:14.578Z,48.03
2023-12-29T04:12:36.911Z,47.44
2023-12-29T04:12:58.591Z,47.58
2023-12-29T04:13:20.386Z,47.33
2023-12-29T04:13:43.011Z,47.24
2023-12-29T04:14:04.614Z,47.26
2023-12-29T04:14:26.233Z,47.57
2023-12-29T04:14:47.911Z,47.61
2023-12-29T04:15:10.356Z,47.31
2023-12-29T04:15:33.077Z,47.33
2023-12-29T04:15:54.705Z,47.85
2023-12-29T04:16:16.625Z,47.43
2023-12-29T04:16:38.910Z,47.33
2023-12-29T04:17:01.337Z,47.29
2023-12-29T04:17:23.966Z,47.23
2023-12-29T04:17:45.698Z,47.26
2023-12-29T04:18:07.466Z,47.18
2023-12-29T04:18:30.193Z,47.60
2023-12-29T04:18:52.025Z,47.67
2023-12-29T04:19:16.350Z,47.77
2023-12-29T04:19:38.268Z,47.28
2023-12-29T04:20:00.835Z,47.69
2023-12-29T04:20:22.620Z,47.88
2023-12-29T04:20:44.264Z,47.46
2023-12-29T04:21:10.035Z,47.57
2023-12-29T04:21:34.332Z,47.54
2023-12-29T04:21:56.108Z,47.80
2023-12-29T04:22:18.945Z,47.66
2023-12-29T04:22:40.574Z,47.39
2023-12-29T04:23:03.699Z,47.30
2023-12-29T04:23:25.310Z,47.60
2023-12-29T04:23:48.003Z,47.25
2023-12-29T04:24:09.691Z,47.19
2023-12-29T04:24:31.465Z,46.95
2023-12-29T04:24:53.285Z,47.41
2023-12-29T04:25:15.038Z,47.08
2023-12-29T04:25:36.700Z,47.26
2023-12-29T04:26:02.705Z,46.78
2023-12-29T04:26:24.305Z,46.79
2023-12-29T04:26:45.948Z,46.61
2023-12-29T04:27:08.478Z,46.64
2023-12-29T04:27:30.226Z,46.77
2023-12-29T04:27:51.893Z,46.48
2023-12-29T04:28:15.046Z,46.39
2023-12-29T04:28:36.715Z,46.27
2023-12-29T04:28:58.482Z,46.35
2023-12-29T04:29:20.133Z,46.45
2023-12-29T04:29:41.718Z,46.33
2023-12-29T04:30:05.090Z,46.16
2023-12-29T04:30:26.711Z,46.22
2023-12-29T04:30:50.992Z,46.09
2023-12-29T04:31:12.881Z,46.12
2023-12-29T04:31:34.622Z,45.96
2023-12-29T04:31:56.375Z,45.69
2023-12-29T04:32:18.973Z,45.49
2023-12-29T04:32:40.625Z,45.60
2023-12-29T04:33:02.502Z,45.48
2023-12-29T04:33:25.629Z,45.42
2023-12-29T04:33:47.319Z,46.16
2023-12-29T04:34:09.040Z,45.91
2023-12-29T04:34:32.020Z,46.22
2023-12-29T04:34:53.714Z,46.29
2023-12-29T04:35:15.981Z,45.92
2023-12-29T04:35:37.682Z,45.79
2023-12-29T04:35:59.337Z,45.53
2023-12-29T04:36:21.889Z,45.79
2023-12-29T04:36:43.560Z,45.97
2023-12-29T04:37:05.422Z,46.04
2023-12-29T04:37:27.111Z,45.66
2023-12-29T04:37:50.378Z,45.49
2023-12-29T04:38:13.012Z,45.47
2023-12-29T04:38:35.058Z,45.61
2023-12-29T04:38:56.663Z,45.38
2023-12-29T04:39:18.389Z,45.17
2023-12-29T04:39:40.708Z,45.24
2023-12-29T04:40:03.356Z,45.55
2023-12-29T04:40:25.020Z,46.04
2023-12-29T04:40:48.074Z,46.32
2023-12-29T04:41:12.967Z,46.35
2023-12-29T04:41:34.568Z,46.29
2023-12-29T04:41:57.351Z,46.48
2023-12-29T04:42:19.209Z,46.23
2023-12-29T04:42:40.831Z,46.35
2023-12-29T04:43:02.486Z,46.40
2023-12-29T04:43:24.140Z,46.26
2023-12-29T04:43:45.764Z,46.59
2023-12-29T04:44:08.324Z,46.22
2023-12-29T04:44:30.175Z,46.30
2023-12-29T04:44:51.783Z,46.72
2023-12-29T04:45:13.668Z,46.51
2023-12-29T04:45:35.358Z,46.57
2023-12-29T04:45:58.673Z,46.58
2023-12-29T04:46:20.271Z,46.54
2023-12-29T04:46:41.864Z,46.50
2023-12-29T04:47:03.948Z,46.72
2023-12-29T04:47:25.644Z,46.58
2023-12-29T04:47:47.317Z,46.39
2023-12-29T04:48:10.043Z,46.17
2023-12-29T04:48:31.721Z,46.22
2023-12-29T04:48:54.208Z,45.87
2023-12-29T04:49:16.051Z,45.87
2023-12-29T04:49:37.903Z,45.86
2023-12-29T04:50:00.865Z,45.61
2023-12-29T04:50:22.589Z,45.63
2023-12-29T04:50:44.386Z,45.82
2023-12-29T04:51:06.021Z,45.62
2023-12-29T04:51:27.639Z,45.81
2023-12-29T04:51:50.460Z,45.92
2023-12-29T04:52:12.258Z,46.22
2023-12-29T04:52:33.957Z,46.08
2023-12-29T04:52:56.334Z,45.84
2023-12-29T04:53:17.924Z,45.95
2023-12-29T04:53:40.511Z,46.32
2023-12-29T04:54:03.216Z,46.32
2023-12-29T04:54:25.643Z,46.34
2023-12-29T04:54:47.291Z,46.37
2023-12-29T04:55:09.571Z,46.27
2023-12-29T04:55:31.286Z,46.57
2023-12-29T04:55:53.909Z,46.51
2023-12-29T04:56:16.933Z,46.90
2023-12-29T04:56:38.562Z,47.20
2023-12-29T04:57:00.312Z,47.19
2023-12-29T04:57:22.030Z,47.78
2023-12-29T04:57:44.695Z,47.50
2023-12-29T04:58:06.328Z,47.67
2023-12-29T04:58:28.022Z,47.32
2023-12-29T04:58:52.754Z,47.67
2023-12-29T04:59:14.374Z,47.87
2023-12-29T04:59:36.062Z,47.76
2023-12-29T04:59:58.608Z,47.70
2023-12-29T05:00:20.558Z,47.85
2023-12-29T05:00:42.228Z,47.46
2023-12-29T05:01:04.313Z,47.26
2023-12-29T05:01:26.062Z,47.35
2023-12-29T05:01:48.141Z,47.61
2023-12-29T05:02:10.749Z,47.43
2023-12-29T05:02:32.453Z,47.35
2023-12-29T05:02:54.141Z,47.15